createdAt,value
2022-11-13T00:02:26.901Z,3.83
2022-11-13T00:04:54.065Z,4.07
2022-11-13T00:07:27.570Z,3.65
2022-11-13T00:10:01.459Z,3.80
2022-11-13T00:12:36.486Z,3.97
2022-11-13T00:15:03.647Z,4.35
2022-11-13T00:17:37.777Z,4.15
2022-11-13T00:20:05.041Z,3.92
2022-11-13T00:22:32.137Z,3.67
2022-11-13T00:25:05.507Z,3.88
2022-11-13T00:27:32.729Z,3.78
2022-11-13T00:30:06.743Z,3.00
2022-11-13T00:32:34.138Z,4.35
2022-11-13T00:35:01.295Z,3.60
2022-11-13T00:37:34.515Z,3.72
2022-11-13T00:40:01.814Z,3.67
2022-11-13T00:42:35.775Z,3.25
2022-11-13T00:45:03.027Z,3.83
2022-11-13T00:47:30.121Z,3.40
2022-11-13T00:50:03.586Z,3.88
2022-11-13T00:52:30.786Z,3.67
2022-11-13T00:55:04.653Z,3.25
2022-11-13T00:57:31.944Z,3.65
2022-11-13T00:59:59.058Z,3.30
2022-11-13T01:02:32.625Z,3.53
2022-11-13T01:04:59.852Z,3.83
2022-11-13T01:07:33.643Z,3.78
2022-11-13T01:10:01.116Z,3.65
2022-11-13T01:12:34.638Z,3.10
2022-11-13T01:15:01.810Z,3.40
2022-11-13T01:17:28.934Z,3.88
2022-11-13T01:20:02.621Z,3.92
2022-11-13T01:22:29.962Z,3.10
2022-11-13T01:25:03.587Z,3.60
2022-11-13T01:27:30.741Z,4.18
2022-11-13T01:30:04.619Z,4.53
2022-11-13T01:32:31.898Z,3.53
2022-11-13T01:35:12.644Z,4.03
2022-11-13T01:37:39.816Z,3.78
2022-11-13T01:40:07.146Z,3.65
2022-11-13T01:42:41.587Z,3.95
2022-11-13T01:45:27.277Z,3.92
2022-11-13T01:48:01.668Z,3.63
2022-11-13T01:50:28.781Z,4.43
2022-11-13T01:52:56.034Z,3.88
2022-11-13T01:55:29.544Z,3.45
2022-11-13T01:57:57.373Z,3.53
2022-11-13T02:00:31.658Z,3.83
2022-11-13T02:02:58.776Z,4.00
2022-11-13T02:05:25.981Z,4.70
2022-11-13T02:08:06.512Z,4.38
2022-11-13T02:10:33.690Z,4.10
2022-11-13T02:13:07.567Z,4.00
2022-11-13T02:15:35.547Z,4.50
2022-11-13T02:18:10.534Z,5.53
2022-11-13T02:20:40.560Z,4.35
2022-11-13T02:23:26.519Z,4.80
2022-11-13T02:25:53.982Z,4.75
2022-11-13T02:28:27.847Z,4.88
2022-11-13T02:30:55.182Z,5.03
2022-11-13T02:33:36.707Z,5.32
2022-11-13T02:36:04.438Z,4.85
2022-11-13T02:38:31.841Z,4.63
2022-11-13T02:41:05.523Z,5.43
2022-11-13T02:43:32.776Z,4.85
2022-11-13T02:46:06.714Z,5.13
2022-11-13T02:48:33.903Z,4.88
2022-11-13T02:51:01.259Z,4.65
2022-11-13T02:53:34.633Z,5.22
2022-11-13T02:56:01.796Z,5.32
2022-11-13T02:58:35.614Z,5.88
2022-11-13T03:01:03.753Z,5.45
2022-11-13T03:03:56.555Z,6.93
2022-11-13T03:06:24.649Z,6.75
2022-11-13T03:08:58.395Z,7.57
2022-11-13T03:11:32.669Z,6.43
2022-11-13T03:13:59.756Z,7.85
2022-11-13T03:16:27.040Z,7.60
2022-11-13T03:19:02.591Z,8.00
2022-11-13T03:21:29.792Z,8.10
2022-11-13T03:24:03.562Z,8.57
2022-11-13T03:26:30.935Z,8.25
2022-11-13T03:28:58.220Z,7.93
2022-11-13T03:31:32.566Z,7.60
2022-11-13T03:33:59.874Z,7.95
2022-11-13T03:36:33.696Z,7.55
2022-11-13T03:39:00.945Z,8.07
2022-11-13T03:41:28.122Z,6.50
2022-11-13T03:44:01.590Z,6.32
2022-11-13T03:46:28.843Z,7.57
2022-11-13T03:49:02.758Z,7.78
2022-11-13T03:51:29.967Z,6.97
2022-11-13T03:53:57.235Z,6.30
2022-11-13T03:56:30.641Z,6.80
2022-11-13T03:58:57.770Z,7.30
2022-11-13T04:01:31.651Z,7.18
2022-11-13T04:03:58.783Z,6.75
2022-11-13T04:06:25.957Z,7.32
2022-11-13T04:08:59.582Z,6.70
2022-11-13T04:11:26.730Z,7.47
2022-11-13T04:14:00.685Z,7.18
2022-11-13T04:16:27.961Z,7.03
2022-11-13T04:18:55.365Z,5.90
2022-11-13T04:21:28.651Z,6.93
2022-11-13T04:23:55.891Z,7.35
2022-11-13T04:26:29.778Z,7.00
2022-11-13T04:28:56.979Z,6.85
2022-11-13T04:31:24.073Z,7.28
2022-11-13T04:33:57.674Z,6.20
2022-11-13T04:36:24.854Z,7.07
2022-11-13T04:38:51.989Z,7.15
2022-11-13T04:41:44.803Z,6.30
2022-11-13T04:44:12.020Z,7.80
2022-11-13T04:46:39.106Z,6.93
2022-11-13T04:49:12.795Z,7.25
2022-11-13T04:51:40.099Z,6.47
2022-11-13T04:54:07.214Z,6.07
2022-11-13T04:56:41.074Z,6.15
2022-11-13T04:59:08.309Z,5.93
2022-11-13T05:01:42.800Z,4.57
2022-11-13T05:04:13.295Z,5.00
2022-11-13T05:06:40.446Z,6.13
2022-11-13T05:09:14.618Z,5.35
2022-11-13T05:11:41.956Z,4.70
2022-11-13T05:14:18.825Z,4.90
2022-11-13T05:16:46.026Z,5.22
2022-11-13T05:19:13.245Z,4.68
2022-11-13T05:21:46.649Z,4.90
2022-11-13T05:24:13.855Z,6.25
2022-11-13T05:26:41.236Z,4.30
2022-11-13T05:29:14.692Z,4.00
2022-11-13T05:31:41.894Z,4.53
2022-11-13T05:34:09.286Z,6.30
2022-11-13T05:36:42.705Z,4.60
2022-11-13T05:39:16.542Z,4.80
2022-11-13T05:41:50.611Z,4.72
2022-11-13T05:44:17.775Z,5.03
2022-11-13T05:46:51.665Z,4.28
2022-11-13T05:49:18.903Z,4.85
2022-11-13T05:51:46.041Z,4.57
2022-11-13T05:54:19.770Z,4.65
2022-11-13T05:56:47.007Z,4.88
2022-11-13T05:59:14.219Z,4.63
2022-11-13T06:01:48.651Z,4.28
2022-11-13T06:04:15.868Z,4.13
2022-11-13T06:06:49.702Z,4.80
2022-11-13T06:09:23.579Z,4.85
2022-11-13T06:11:57.745Z,4.50
2022-11-13T06:14:24.922Z,4.80
2022-11-13T06:16:52.167Z,4.68
2022-11-13T06:19:25.640Z,4.40
2022-11-13T06:21:52.786Z,3.55
2022-11-13T06:24:26.812Z,4.28
2022-11-13T06:26:53.934Z,4.03
2022-11-13T06:29:21.183Z,3.42
2022-11-13T06:31:54.722Z,3.42
2022-11-13T06:34:21.845Z,3.13
2022-11-13T06:36:55.597Z,3.40
2022-11-13T06:39:22.837Z,3.28
2022-11-13T06:41:56.841Z,3.60
2022-11-13T06:44:24.045Z,2.85
2022-11-13T06:46:51.174Z,3.22
2022-11-13T06:49:24.627Z,3.55
2022-11-13T06:51:51.844Z,3.10
2022-11-13T06:54:25.767Z,3.40
2022-11-13T06:56:52.911Z,3.45
2022-11-13T06:59:19.999Z,2.55
2022-11-13T07:01:53.619Z,2.75
2022-11-13T07:04:20.767Z,3.05
2022-11-13T07:06:54.916Z,3.05
2022-11-13T07:09:28.521Z,2.75
2022-11-13T07:12:02.787Z,3.10
2022-11-13T07:14:29.982Z,2.50
2022-11-13T07:17:09.099Z,2.47
2022-11-13T07:19:43.623Z,2.97
2022-11-13T07:22:10.788Z,2.70
2022-11-13T07:24:44.791Z,3.15
2022-11-13T07:27:12.029Z,3.00
2022-11-13T07:29:39.178Z,3.15
2022-11-13T07:32:12.662Z,3.33
2022-11-13T07:34:39.856Z,4.00
2022-11-13T07:37:13.786Z,3.72
2022-11-13T07:39:40.975Z,4.32
2022-11-13T07:42:08.130Z,4.38
2022-11-13T07:44:54.028Z,4.20
2022-11-13T07:47:22.075Z,5.05
2022-11-13T07:50:03.402Z,4.70
2022-11-13T07:52:34.008Z,3.58
2022-11-13T07:55:07.780Z,5.15
2022-11-13T07:57:34.922Z,3.95
2022-11-13T08:00:02.180Z,4.88
2022-11-13T08:02:35.714Z,2.97
2022-11-13T08:05:02.811Z,5.07
2022-11-13T08:07:36.661Z,4.43
2022-11-13T08:10:10.712Z,3.92
2022-11-13T08:12:44.753Z,5.78
2022-11-13T08:15:18.574Z,5.70
2022-11-13T08:17:52.737Z,5.97
2022-11-13T08:20:26.572Z,6.50
2022-11-13T08:23:00.690Z,6.88
2022-11-13T08:25:28.806Z,7.72
2022-11-13T08:27:56.193Z,11.40
2022-11-13T08:30:30.653Z,7.70
2022-11-13T08:32:57.908Z,8.73
2022-11-13T08:35:29.189Z,9.20
2022-11-13T08:38:08.649Z,8.18
2022-11-13T08:40:36.248Z,10.35
2022-11-13T08:45:37.641Z,6.85
2022-11-13T08:48:05.171Z,8.80
2022-11-13T08:50:39.863Z,7.78
2022-11-13T08:53:07.224Z,10.48
2022-11-13T08:55:41.820Z,8.63
2022-11-13T08:58:09.505Z,9.55
2022-11-13T09:00:36.752Z,7.47
2022-11-13T09:03:10.813Z,8.13
2022-11-13T09:05:38.085Z,9.57
2022-11-13T09:08:18.695Z,8.68
2022-11-13T09:10:45.915Z,6.35
2022-11-13T09:13:13.075Z,7.43
2022-11-13T09:15:46.683Z,7.15
2022-11-13T09:18:13.833Z,8.07
2022-11-13T09:20:47.909Z,7.72
2022-11-13T09:23:15.194Z,7.13
2022-11-13T09:25:42.315Z,7.47
2022-11-13T09:28:18.767Z,9.23
2022-11-13T09:30:52.790Z,7.40
2022-11-13T09:33:20.070Z,7.68
2022-11-13T09:35:47.240Z,6.28
2022-11-13T09:38:21.698Z,5.00
2022-11-13T09:40:51.971Z,5.10
2022-11-13T09:43:31.785Z,5.30
2022-11-13T09:46:01.133Z,4.72
2022-11-13T09:48:31.831Z,4.95
2022-11-13T09:51:08.833Z,5.20
2022-11-13T09:53:37.202Z,5.25
2022-11-13T09:56:29.715Z,4.63
2022-11-13T09:59:22.418Z,5.70
2022-11-13T10:01:58.806Z,6.80
2022-11-13T10:04:34.318Z,6.88
2022-11-13T10:07:12.920Z,6.18
2022-11-13T10:09:57.662Z,7.53
2022-11-13T10:12:39.683Z,6.32
2022-11-13T10:15:13.622Z,7.40
2022-11-13T10:17:43.148Z,7.05
2022-11-13T10:20:19.635Z,7.38
2022-11-13T10:22:49.614Z,6.13
2022-11-13T10:25:24.601Z,4.95
2022-11-13T10:27:57.169Z,5.05
2022-11-13T10:30:31.625Z,5.40
2022-11-13T10:33:04.782Z,5.63
2022-11-13T10:35:44.623Z,6.68
2022-11-13T10:38:17.290Z,6.97
2022-11-13T10:40:50.659Z,6.55
2022-11-13T10:43:25.330Z,6.60
2022-11-13T10:46:09.638Z,7.07
2022-11-13T10:48:37.289Z,6.80
2022-11-13T10:51:14.779Z,7.30
2022-11-13T10:53:43.137Z,7.43
2022-11-13T10:56:35.629Z,7.60
2022-11-13T10:59:19.447Z,7.82
2022-11-13T11:01:59.647Z,6.13
2022-11-13T11:04:27.665Z,4.90
2022-11-13T11:09:55.867Z,3.65
2022-11-13T11:12:31.655Z,3.63
2022-11-13T11:14:59.068Z,3.13
2022-11-13T11:17:45.667Z,3.00
2022-11-13T11:20:25.118Z,3.05
2022-11-13T11:23:05.663Z,2.90
2022-11-13T11:25:36.964Z,2.97
2022-11-13T11:28:33.634Z,2.67
2022-11-13T11:31:05.730Z,2.70
2022-11-13T11:33:42.658Z,2.60
2022-11-13T11:36:29.346Z,2.28
2022-11-13T11:39:02.647Z,2.17
2022-11-13T11:41:33.973Z,2.35
2022-11-13T11:44:17.659Z,2.47
2022-11-13T11:46:46.886Z,2.28
2022-11-13T11:49:20.653Z,2.65
2022-11-13T11:52:01.048Z,2.40
2022-11-13T11:54:52.637Z,2.80
2022-11-13T11:57:31.992Z,2.50
2022-11-13T12:00:11.783Z,2.47
2022-11-13T12:02:57.468Z,2.60
2022-11-13T12:05:51.800Z,2.42
2022-11-13T12:08:25.980Z,2.78
2022-11-13T12:11:26.803Z,2.95
2022-11-13T12:14:00.084Z,2.55
2022-11-13T12:16:36.664Z,2.40
2022-11-13T12:19:06.089Z,2.85
2022-11-13T12:21:51.675Z,2.30
2022-11-13T12:24:36.906Z,2.40
2022-11-13T12:27:17.800Z,2.40
2022-11-13T12:30:03.735Z,2.10
2022-11-13T12:32:52.670Z,2.30
2022-11-13T12:35:27.752Z,2.38
2022-11-13T12:38:01.684Z,1.90
2022-11-13T12:40:39.848Z,2.28
2022-11-13T12:43:27.680Z,2.80
2022-11-13T12:46:07.739Z,2.40
2022-11-13T12:48:43.046Z,3.10
2022-11-13T12:51:17.767Z,3.00
2022-11-13T12:53:54.938Z,2.83
2022-11-13T12:56:32.858Z,3.30
2022-11-13T12:59:28.398Z,3.13
2022-11-13T13:01:55.892Z,1.50
2022-11-13T14:57:26.901Z,1.80
2022-11-13T15:00:14.478Z,2.20
2022-11-13T15:02:47.807Z,2.15
2022-11-13T15:05:14.917Z,2.45
2022-11-13T15:07:49.814Z,2.20
2022-11-13T15:10:18.339Z,2.58
2022-11-13T15:12:45.496Z,2.60
2022-11-13T15:15:23.792Z,2.90
2022-11-13T15:17:52.004Z,2.05
2022-11-13T15:20:30.818Z,1.70
2022-11-13T15:22:58.478Z,1.30
2022-11-13T15:25:32.898Z,1.35
2022-11-13T15:28:00.163Z,1.48
2022-11-13T15:30:27.349Z,1.48
2022-11-13T15:33:01.917Z,1.65
2022-11-13T15:35:29.134Z,1.90
2022-11-13T15:37:56.682Z,2.00
2022-11-13T15:42:59.959Z,1.80
2022-11-13T15:45:33.930Z,1.60
2022-11-13T15:48:01.149Z,1.85
2022-11-13T15:50:28.531Z,1.60
2022-11-13T15:53:05.262Z,1.98
2022-11-13T15:55:33.341Z,2.05
2022-11-13T16:00:42.851Z,1.60
2022-11-13T16:03:18.912Z,1.20
2022-11-13T16:05:46.147Z,1.40
2022-11-13T16:08:14.124Z,1.50
2022-11-13T16:10:47.890Z,1.70
2022-11-13T16:13:15.125Z,1.83
2022-11-13T16:15:48.898Z,1.50
2022-11-13T16:18:23.375Z,1.60
2022-11-13T16:20:57.933Z,1.77
2022-11-13T16:23:25.018Z,1.48
2022-11-13T16:25:53.535Z,1.30
2022-11-13T16:28:27.007Z,1.70
2022-11-13T16:30:54.289Z,1.77
2022-11-13T16:33:21.402Z,1.42
2022-11-13T16:35:55.800Z,1.70
2022-11-13T16:38:29.767Z,2.45
2022-11-13T16:41:03.880Z,2.25
2022-11-13T16:43:31.284Z,2.47
2022-11-13T16:46:06.958Z,2.20
2022-11-13T16:48:34.156Z,2.10
2022-11-13T16:51:01.272Z,2.10
2022-11-13T16:53:34.815Z,1.88
2022-11-13T16:56:02.429Z,1.70
2022-11-13T17:01:16.668Z,1.98
2022-11-13T17:03:50.967Z,2.45
2022-11-13T17:06:31.050Z,2.42
2022-11-13T17:09:05.935Z,2.40
2022-11-13T17:11:40.025Z,2.35
2022-11-13T17:14:07.209Z,2.10
2022-11-13T17:16:34.385Z,2.22
2022-11-13T17:19:07.818Z,3.40
2022-11-13T17:21:37.879Z,3.83
2022-11-13T17:24:13.934Z,3.42
2022-11-13T17:26:41.353Z,3.17
2022-11-13T17:29:08.583Z,2.95
2022-11-13T17:31:41.898Z,2.80
2022-11-13T17:34:09.213Z,2.85
2022-11-13T17:36:36.525Z,3.47
2022-11-13T17:39:10.981Z,3.40
2022-11-13T17:41:38.278Z,4.00
2022-11-13T17:44:12.072Z,3.55
2022-11-13T17:46:39.366Z,3.97
2022-11-13T17:49:06.485Z,3.63
2022-11-13T17:51:40.010Z,2.90
2022-11-13T17:54:07.269Z,2.88
2022-11-13T17:56:43.013Z,2.28
2022-11-13T17:59:16.845Z,2.65
2022-11-13T18:01:50.890Z,5.25
2022-11-13T18:04:18.159Z,7.85
2022-11-13T18:06:52.006Z,16.27
2022-11-13T18:09:19.190Z,2.53
2022-11-13T18:11:46.302Z,3.00
2022-11-13T18:14:20.046Z,3.80
2022-11-13T18:16:47.283Z,3.28
2022-11-13T18:19:14.474Z,2.92
2022-11-13T18:21:48.924Z,2.53
2022-11-13T18:24:17.933Z,3.40
2022-11-13T18:26:51.965Z,4.22
2022-11-13T18:29:22.014Z,4.65
2022-11-13T18:31:49.156Z,4.45
2022-11-13T18:34:23.851Z,3.78
2022-11-13T18:36:51.081Z,3.72
2022-11-13T18:39:24.958Z,3.40
2022-11-13T18:41:52.257Z,5.00
2022-11-13T18:44:19.505Z,3.22
2022-11-13T18:46:52.847Z,2.47
2022-11-13T18:49:20.089Z,2.78
2022-11-13T18:51:54.028Z,2.90
2022-11-13T18:54:21.267Z,2.78
2022-11-13T18:56:48.487Z,3.10
2022-11-13T18:59:22.014Z,3.17
2022-11-13T19:01:49.389Z,3.30
2022-11-13T19:04:22.694Z,4.82
2022-11-13T19:06:57.992Z,4.32
2022-11-13T19:09:31.815Z,3.65
2022-11-13T19:11:59.085Z,3.35
2022-11-13T19:14:32.947Z,2.88
2022-11-13T19:17:00.203Z,2.67
2022-11-13T19:19:27.303Z,2.00
2022-11-13T19:22:00.825Z,2.75
2022-11-13T19:24:28.094Z,3.28
2022-11-13T19:27:01.845Z,3.40
2022-11-13T19:29:29.190Z,3.58
2022-11-13T19:31:56.998Z,3.58
2022-11-13T19:34:31.116Z,3.80
2022-11-13T19:36:58.309Z,3.25
2022-11-13T19:39:25.493Z,3.80
2022-11-13T19:41:58.894Z,3.05
2022-11-13T19:44:26.146Z,2.78
2022-11-13T19:47:00.036Z,3.65
2022-11-13T19:49:27.241Z,3.80
2022-11-13T19:51:54.860Z,4.15
2022-11-13T19:56:56.307Z,4.50
2022-11-13T19:59:35.933Z,4.78
2022-11-13T20:02:03.171Z,3.50
2022-11-13T20:04:30.319Z,3.90
2022-11-13T20:07:04.104Z,5.50
2022-11-13T20:09:31.568Z,5.55
2022-11-13T20:11:58.723Z,4.00
2022-11-13T20:14:37.940Z,3.83
2022-11-13T20:17:05.609Z,4.72
2022-11-13T20:19:39.019Z,4.28
2022-11-13T20:22:06.229Z,7.30
2022-11-13T20:24:33.387Z,6.03
2022-11-13T20:27:06.926Z,11.13
2022-11-13T20:29:34.081Z,5.00
2022-11-13T20:32:01.625Z,3.83
2022-11-13T20:37:08.846Z,4.28
2022-11-13T20:39:42.977Z,4.93
2022-11-13T20:42:10.129Z,4.55
2022-11-13T20:44:43.913Z,5.75
2022-11-13T20:47:11.386Z,4.00
2022-11-13T20:49:44.958Z,5.45
2022-11-13T20:52:12.209Z,5.07
2022-11-13T20:54:39.367Z,5.35
2022-11-13T20:57:12.970Z,4.68
2022-11-13T21:00:07.924Z,4.18
2022-11-13T21:02:41.891Z,5.00
2022-11-13T21:05:09.125Z,5.25
2022-11-13T21:07:43.020Z,4.85
2022-11-13T21:10:10.264Z,5.47
2022-11-13T21:12:37.441Z,5.57
2022-11-13T21:15:11.033Z,4.38
2022-11-13T21:17:38.278Z,6.45
2022-11-13T21:20:05.767Z,6.35
2022-11-13T21:22:40.235Z,6.47
2022-11-13T21:25:07.710Z,5.93
2022-11-13T21:27:41.087Z,7.07
2022-11-13T21:30:08.491Z,5.93
2022-11-13T21:32:35.586Z,11.70
2022-11-13T21:35:08.926Z,5.80
2022-11-13T21:37:36.143Z,5.60
2022-11-13T21:40:10.080Z,6.13
2022-11-13T21:42:37.340Z,6.15
2022-11-13T21:45:10.929Z,5.97
2022-11-13T21:47:38.061Z,6.30
2022-11-13T21:50:12.923Z,6.43
2022-11-13T21:52:40.149Z,4.65
2022-11-13T21:55:14.110Z,5.45
2022-11-13T21:58:00.853Z,6.05
2022-11-13T22:00:41.342Z,6.25
2022-11-13T22:03:08.520Z,7.88
2022-11-13T22:05:35.696Z,9.00
2022-11-13T22:08:08.966Z,4.88
2022-11-13T22:10:36.073Z,6.85
2022-11-13T22:13:09.935Z,10.52
2022-11-13T22:15:37.056Z,10.30
2022-11-13T22:18:04.212Z,11.30
2022-11-13T22:20:37.918Z,12.88
2022-11-13T22:23:05.977Z,14.82
2022-11-13T22:25:41.027Z,9.15
2022-11-13T22:28:08.148Z,9.50
2022-11-13T22:30:35.326Z,9.35
2022-11-13T22:33:09.353Z,7.72
2022-11-13T22:35:36.608Z,5.68
2022-11-13T22:38:10.013Z,9.52
2022-11-13T22:40:37.325Z,9.20
2022-11-13T22:43:04.505Z,10.20
2022-11-13T22:45:40.162Z,9.10
2022-11-13T22:48:13.887Z,8.95
2022-11-13T22:50:41.238Z,7.00
2022-11-13T22:53:14.883Z,9.18
2022-11-13T22:55:48.869Z,10.75
2022-11-13T22:58:22.996Z,10.65
2022-11-13T23:00:56.988Z,9.90
2022-11-13T23:03:30.922Z,11.57
2022-11-13T23:05:58.135Z,9.13
2022-11-13T23:08:25.444Z,11.38
2022-11-13T23:11:00.941Z,9.88
2022-11-13T23:13:28.083Z,10.75
2022-11-13T23:16:02.108Z,12.95
2022-11-13T23:18:32.658Z,11.82
2022-11-13T23:21:00.052Z,11.38
2022-11-13T23:23:33.965Z,16.88
2022-11-13T23:26:01.134Z,10.48
2022-11-13T23:28:42.252Z,8.75
2022-11-13T23:31:09.388Z,13.27
2022-11-13T23:33:38.019Z,9.38
2022-11-13T23:36:12.961Z,8.68
2022-11-13T23:38:40.297Z,8.40
2022-11-13T23:41:13.995Z,9.20
2022-11-13T23:46:35.083Z,10.30
2022-11-13T23:49:02.246Z,6.85
2022-11-13T23:51:36.093Z,10.70
2022-11-13T23:54:03.325Z,7.65
2022-11-13T23:56:30.504Z,7.72
2022-11-13T23:59:03.942Z,6.97
